createdAt,value
2022-08-09T00:01:04.797Z,100.00
2022-08-09T00:04:10.002Z,100.00
2022-08-09T00:06:23.653Z,100.00
2022-08-09T00:08:49.999Z,100.00
2022-08-09T00:11:25.077Z,100.00
2022-08-09T00:13:54.013Z,100.00
2022-08-09T00:16:26.522Z,100.00
2022-08-09T00:19:03.271Z,100.00
2022-08-09T00:21:35.863Z,100.00
2022-08-09T00:24:02.117Z,100.00
2022-08-09T00:26:30.113Z,100.00
2022-08-09T00:28:59.119Z,100.00
2022-08-09T00:31:57.018Z,100.00
2022-08-09T00:34:12.374Z,100.00
2022-08-09T00:36:40.119Z,100.00
2022-08-09T00:39:17.045Z,100.00
2022-08-09T00:44:14.246Z,100.00
2022-08-09T00:44:40.421Z,100.00
2022-08-09T00:47:07.661Z,100.00
2022-08-09T00:49:33.884Z,100.00
2022-08-09T00:52:02.174Z,100.00
2022-08-09T00:54:36.110Z,100.00
2022-08-09T00:57:02.683Z,100.00
2022-08-09T00:59:41.620Z,100.00
2022-08-09T01:02:12.400Z,100.00
2022-08-09T01:04:39.340Z,100.00
2022-08-09T01:07:12.340Z,100.00
2022-08-09T01:09:40.251Z,100.00
2022-08-09T01:12:06.511Z,100.00
2022-08-09T01:14:34.804Z,100.00
2022-08-09T01:17:01.037Z,100.00
2022-08-09T01:19:42.374Z,100.00
2022-08-09T01:22:12.290Z,100.00
2022-08-09T01:24:39.062Z,100.00
2022-08-09T01:27:05.451Z,100.00
2022-08-09T01:29:41.283Z,100.00
2022-08-09T01:32:31.624Z,100.00
2022-08-09T01:35:00.257Z,100.00
2022-08-09T01:38:05.738Z,100.00
2022-08-09T01:40:23.269Z,100.00
2022-08-09T01:42:54.936Z,100.00
2022-08-09T01:45:22.241Z,100.00
2022-08-09T01:47:49.709Z,100.00
2022-08-09T01:50:16.110Z,100.00
2022-08-09T01:52:43.502Z,100.00
2022-08-09T01:55:09.773Z,100.00
2022-08-09T01:57:40.209Z,100.00
2022-08-09T02:00:34.439Z,100.00
2022-08-09T02:02:58.131Z,100.00
2022-08-09T02:05:37.684Z,100.00
2022-08-09T02:08:35.375Z,100.00
2022-08-09T02:10:51.652Z,100.00
2022-08-09T02:13:18.085Z,100.00
2022-08-09T02:15:49.597Z,100.00
2022-08-09T02:18:16.737Z,100.00
2022-08-09T02:20:43.210Z,100.00
2022-08-09T02:23:10.030Z,100.00
2022-08-09T02:25:42.641Z,100.00
2022-08-09T02:28:12.015Z,100.00
2022-08-09T02:30:44.276Z,100.00
2022-08-09T02:33:14.250Z,100.00
2022-08-09T02:36:02.044Z,100.00
2022-08-09T02:38:28.652Z,100.00
2022-08-09T02:40:56.144Z,100.00
2022-08-09T02:43:23.391Z,100.00
2022-08-09T02:45:55.026Z,100.00
2022-08-09T02:48:31.131Z,100.00
2022-08-09T02:50:57.991Z,100.00
2022-08-09T02:53:26.079Z,100.00
2022-08-09T02:55:57.722Z,100.00
2022-08-09T02:58:35.252Z,100.00
2022-08-09T03:01:04.427Z,100.00
2022-08-09T03:03:37.154Z,100.00
2022-08-09T03:06:18.623Z,100.00
2022-08-09T03:08:47.709Z,100.00
2022-08-09T03:11:15.409Z,100.00
2022-08-09T03:14:01.959Z,100.00
2022-08-09T03:16:28.223Z,100.00
2022-08-09T03:18:55.747Z,100.00
2022-08-09T03:21:25.688Z,100.00
2022-08-09T03:24:04.398Z,100.00
2022-08-09T03:26:32.024Z,100.00
2022-08-09T03:28:58.495Z,100.00
2022-08-09T03:31:24.764Z,100.00
2022-08-09T03:33:53.982Z,100.00
2022-08-09T03:36:21.269Z,100.00
2022-08-09T03:38:54.088Z,100.00
2022-08-09T03:41:20.339Z,100.00
2022-08-09T03:44:08.554Z,100.00
2022-08-09T03:46:35.391Z,100.00
2022-08-09T03:49:04.025Z,100.00
2022-08-09T03:51:57.644Z,100.00
2022-08-09T03:54:29.230Z,100.00
2022-08-09T03:56:57.802Z,100.00
2022-08-09T03:59:42.841Z,100.00
2022-08-09T04:02:09.655Z,100.00
2022-08-09T04:04:38.896Z,100.00
2022-08-09T04:07:05.312Z,100.00
2022-08-09T04:09:47.912Z,100.00
2022-08-09T04:12:30.759Z,100.00
2022-08-09T04:15:01.940Z,100.00
2022-08-09T04:17:37.512Z,100.00
2022-08-09T04:20:05.568Z,100.00
2022-08-09T04:22:33.766Z,100.00
2022-08-09T04:25:00.138Z,100.00
2022-08-09T04:27:28.991Z,100.00
2022-08-09T04:29:55.457Z,100.00
2022-08-09T04:32:23.684Z,100.00
2022-08-09T04:35:03.637Z,100.00
2022-08-09T04:37:42.174Z,100.00
2022-08-09T04:40:19.658Z,100.00
2022-08-09T04:42:59.021Z,100.00
2022-08-09T04:45:25.315Z,100.00
2022-08-09T04:48:01.205Z,100.00
2022-08-09T04:50:33.645Z,100.00
2022-08-09T04:53:04.154Z,100.00
2022-08-09T04:55:38.934Z,100.00
2022-08-09T04:58:09.505Z,100.00
2022-08-09T05:00:36.234Z,100.00
2022-08-09T05:03:12.821Z,100.00
2022-08-09T05:05:51.750Z,100.00
2022-08-09T05:08:18.551Z,100.00
2022-08-09T05:10:44.806Z,100.00
2022-08-09T05:13:11.033Z,100.00
2022-08-09T05:15:43.054Z,100.00
2022-08-09T05:18:38.170Z,100.00
2022-08-09T05:21:13.413Z,100.00
2022-08-09T05:23:53.618Z,100.00
2022-08-09T05:26:37.593Z,100.00
2022-08-09T05:29:17.655Z,100.00
2022-08-09T05:31:47.396Z,100.00
2022-08-09T05:34:17.402Z,100.00
2022-08-09T05:36:43.951Z,100.00
2022-08-09T05:39:13.790Z,100.00
2022-08-09T05:41:54.955Z,100.00
2022-08-09T05:44:22.235Z,100.00
2022-08-09T05:46:55.495Z,100.00
2022-08-09T05:49:33.855Z,100.00
2022-08-09T05:52:07.944Z,100.00
2022-08-09T05:54:34.172Z,100.00
2022-08-09T05:57:00.437Z,100.00
2022-08-09T05:59:26.915Z,100.00
2022-08-09T06:01:53.165Z,100.00
2022-08-09T06:04:25.084Z,100.00
2022-08-09T06:07:01.350Z,100.00
2022-08-09T06:09:54.063Z,100.00
2022-08-09T06:12:13.835Z,100.00
2022-08-09T06:14:40.057Z,100.00
2022-08-09T06:17:09.363Z,100.00
2022-08-09T06:19:36.484Z,100.00
2022-08-09T06:22:03.258Z,100.00
2022-08-09T06:24:29.704Z,100.00
2022-08-09T06:26:57.745Z,100.00
2022-08-09T06:29:24.257Z,100.00
2022-08-09T06:32:52.936Z,100.00
2022-08-09T06:34:39.236Z,100.00
2022-08-09T06:37:05.476Z,100.00
2022-08-09T06:39:49.238Z,100.00
2022-08-09T06:42:24.877Z,100.00
2022-08-09T06:44:54.878Z,100.00
2022-08-09T06:47:23.787Z,100.00
2022-08-09T06:50:14.729Z,100.00
2022-08-09T06:52:36.426Z,100.00
2022-08-09T06:55:10.119Z,100.00
2022-08-09T06:58:01.626Z,100.00
2022-08-09T07:00:54.310Z,100.00
2022-08-09T07:03:11.520Z,100.00
2022-08-09T07:05:58.256Z,100.00
2022-08-09T07:08:24.709Z,100.00
2022-08-09T07:10:51.138Z,100.00
2022-08-09T07:13:27.486Z,100.00
2022-08-09T07:16:42.707Z,100.00
2022-08-09T07:18:41.045Z,100.00
2022-08-09T07:21:09.185Z,100.00
2022-08-09T07:23:36.488Z,100.00
2022-08-09T07:26:22.573Z,100.00
2022-08-09T07:29:08.917Z,100.00
2022-08-09T07:31:38.122Z,100.00
2022-08-09T07:34:05.033Z,100.00
2022-08-09T07:36:31.277Z,100.00
2022-08-09T07:39:00.937Z,100.00
2022-08-09T07:41:33.164Z,100.00
2022-08-09T07:44:05.220Z,100.00
2022-08-09T07:46:31.503Z,100.00
2022-08-09T07:48:59.584Z,100.00
2022-08-09T07:52:04.647Z,100.00
2022-08-09T07:54:12.956Z,100.00
2022-08-09T07:56:49.349Z,99.27
2022-08-09T07:59:34.218Z,100.00
2022-08-09T08:02:02.578Z,100.00
2022-08-09T08:04:32.087Z,100.00
2022-08-09T08:07:00.094Z,98.17
2022-08-09T08:09:42.894Z,95.36
2022-08-09T08:12:27.440Z,94.67
2022-08-09T08:14:55.153Z,94.20
2022-08-09T08:17:35.007Z,92.43
2022-08-09T08:20:12.531Z,93.45
2022-08-09T08:22:39.797Z,91.00
2022-08-09T08:25:09.317Z,90.84
2022-08-09T08:27:40.554Z,90.11
2022-08-09T08:30:08.275Z,88.94
2022-08-09T08:32:52.939Z,86.86
2022-08-09T08:35:22.424Z,87.16
2022-08-09T08:38:01.956Z,84.69
2022-08-09T08:40:35.320Z,80.00
2022-08-09T08:43:03.304Z,78.31
2022-08-09T08:45:50.738Z,77.06
2022-08-09T08:48:19.854Z,73.18
2022-08-09T08:50:49.268Z,74.30
2022-08-09T08:53:22.046Z,73.24
2022-08-09T08:55:48.669Z,70.72
2022-08-09T08:58:18.919Z,68.83
2022-08-09T09:00:54.464Z,69.99
2022-08-09T09:03:33.138Z,69.12
2022-08-09T09:06:05.203Z,70.18
2022-08-09T09:08:32.137Z,68.34
2022-08-09T09:11:07.507Z,68.38
2022-08-09T09:13:42.226Z,65.79
2022-08-09T09:16:29.829Z,64.17
2022-08-09T09:19:21.592Z,64.00
2022-08-09T09:21:46.861Z,62.72
2022-08-09T09:24:20.550Z,61.84
2022-08-09T09:26:48.214Z,61.61
2022-08-09T09:29:17.008Z,60.77
2022-08-09T09:32:03.291Z,61.13
2022-08-09T09:34:30.960Z,62.69
2022-08-09T09:36:59.890Z,63.23
2022-08-09T09:39:42.632Z,62.29
2022-08-09T09:44:39.141Z,59.98
2022-08-09T09:47:06.356Z,63.43
2022-08-09T09:50:07.293Z,58.99
2022-08-09T09:52:36.644Z,60.21
2022-08-09T09:55:16.505Z,59.14
2022-08-09T09:58:03.460Z,58.76
2022-08-09T10:00:31.550Z,58.04
2022-08-09T10:02:58.231Z,60.05
2022-08-09T10:05:26.987Z,55.88
2022-08-09T10:08:27.698Z,55.61
2022-08-09T10:10:54.870Z,55.50
2022-08-09T10:13:24.549Z,53.02
2022-08-09T10:16:55.767Z,54.17
2022-08-09T10:18:54.815Z,56.58
2022-08-09T10:21:21.061Z,56.85
2022-08-09T10:23:47.433Z,55.45
2022-08-09T10:26:19.555Z,54.41
2022-08-09T10:28:49.115Z,54.67
2022-08-09T10:34:32.360Z,52.72
2022-08-09T10:36:59.645Z,52.72
2022-08-09T10:39:28.331Z,53.13
2022-08-09T10:41:55.222Z,53.89
2022-08-09T10:44:21.670Z,50.91
2022-08-09T10:46:55.766Z,51.07
2022-08-09T10:49:50.478Z,49.77
2022-08-09T10:52:13.596Z,49.21
2022-08-09T10:54:46.916Z,49.88
2022-08-09T10:57:16.395Z,49.63
2022-08-09T10:59:57.813Z,49.19
2022-08-09T11:03:51.203Z,49.70
2022-08-09T11:05:25.451Z,49.23
2022-08-09T11:07:59.238Z,48.53
2022-08-09T11:10:26.735Z,48.34
2022-08-09T11:12:55.699Z,49.57
2022-08-09T11:15:24.069Z,49.20
2022-08-09T11:17:53.680Z,48.73
2022-08-09T11:20:23.510Z,49.03
2022-08-09T11:22:56.731Z,49.07
2022-08-09T11:25:25.887Z,49.03
2022-08-09T11:28:14.548Z,46.75
2022-08-09T11:30:48.942Z,46.13
2022-08-09T11:33:15.559Z,47.34
2022-08-09T11:35:49.539Z,48.03
2022-08-09T11:38:17.881Z,45.73
2022-08-09T11:40:44.719Z,45.07
2022-08-09T11:43:11.052Z,45.41
2022-08-09T11:45:42.985Z,45.93
2022-08-09T11:48:18.848Z,45.83
2022-08-09T11:50:56.582Z,46.29
2022-08-09T11:54:01.435Z,46.06
2022-08-09T11:56:41.298Z,45.93
2022-08-09T11:59:09.329Z,44.77
2022-08-09T12:02:15.840Z,45.21
2022-08-09T12:04:28.781Z,46.30
2022-08-09T12:07:03.369Z,43.74
2022-08-09T12:09:34.192Z,44.17
2022-08-09T12:12:02.340Z,44.54
2022-08-09T12:14:40.618Z,44.85
2022-08-09T12:17:20.981Z,44.20
2022-08-09T12:20:01.387Z,44.21
2022-08-09T12:22:27.707Z,44.26
2022-08-09T12:24:55.563Z,44.90
2022-08-09T12:29:14.626Z,45.30
2022-08-09T12:30:36.132Z,44.54
2022-08-09T12:32:57.190Z,44.00
2022-08-09T12:35:24.138Z,43.85
2022-08-09T12:37:54.105Z,43.63
2022-08-09T12:40:20.475Z,43.50
2022-08-09T12:42:50.139Z,44.14
2022-08-09T12:45:34.178Z,42.39
2022-08-09T12:48:03.585Z,42.87
2022-08-09T12:50:29.928Z,42.21
2022-08-09T12:53:07.884Z,42.60
2022-08-09T12:56:14.046Z,42.29
2022-08-09T12:58:24.117Z,42.22
2022-08-09T13:00:53.792Z,42.74
2022-08-09T13:03:24.506Z,43.09
2022-08-09T13:06:14.508Z,44.02
2022-08-09T13:08:43.568Z,44.39
2022-08-09T13:11:22.918Z,44.38
2022-08-09T13:14:41.251Z,44.25
2022-08-09T13:16:37.014Z,44.04
2022-08-09T13:19:03.347Z,43.87
2022-08-09T13:23:00.687Z,43.90
2022-08-09T13:24:44.618Z,43.48
2022-08-09T13:27:08.525Z,43.58
2022-08-09T13:30:02.747Z,43.12
2022-08-09T13:32:27.503Z,42.90
2022-08-09T13:34:54.023Z,42.12
2022-08-09T13:37:51.168Z,41.74
2022-08-09T13:41:50.735Z,40.28
2022-08-09T13:42:53.104Z,39.58
2022-08-09T13:45:19.873Z,38.64
2022-08-09T13:47:49.176Z,39.24
2022-08-09T13:50:31.082Z,37.98
2022-08-09T13:52:58.117Z,37.76
2022-08-09T13:55:24.378Z,37.54
2022-08-09T13:57:58.078Z,39.53
2022-08-09T14:00:28.550Z,39.14
2022-08-09T14:03:16.604Z,37.98
2022-08-09T14:05:58.863Z,36.86
2022-08-09T14:08:28.279Z,36.18
2022-08-09T14:10:54.805Z,36.19
2022-08-09T14:13:27.731Z,35.33
2022-08-09T14:16:10.550Z,35.34
2022-08-09T14:18:37.641Z,34.66
2022-08-09T14:21:03.972Z,35.34
2022-08-09T14:23:40.710Z,35.40
2022-08-09T14:26:18.855Z,36.75
2022-08-09T14:28:45.086Z,37.67
2022-08-09T14:31:11.732Z,37.88
2022-08-09T14:33:38.522Z,37.36
2022-08-09T14:36:19.977Z,37.52
2022-08-09T14:38:47.159Z,37.99
2022-08-09T14:41:34.617Z,37.79
2022-08-09T14:44:06.254Z,38.06
2022-08-09T14:46:54.265Z,38.11
2022-08-09T14:49:19.534Z,38.79
2022-08-09T14:51:50.032Z,39.58
2022-08-09T14:54:16.412Z,40.04
2022-08-09T14:56:57.871Z,39.68
2022-08-09T14:59:25.574Z,40.67
2022-08-09T15:01:53.595Z,40.84
2022-08-09T15:04:20.030Z,40.74
2022-08-09T15:06:50.282Z,40.51
2022-08-09T15:10:03.655Z,40.74
2022-08-09T15:12:04.025Z,40.81
2022-08-09T15:14:33.906Z,41.11
2022-08-09T15:17:00.418Z,41.29
2022-08-09T15:19:31.078Z,41.39
2022-08-09T15:22:03.018Z,41.83
2022-08-09T15:24:29.636Z,42.43
2022-08-09T15:26:56.178Z,42.04
2022-08-09T15:30:58.706Z,42.29
2022-08-09T15:32:28.986Z,42.52
2022-08-09T15:34:56.448Z,42.71
2022-08-09T15:37:23.364Z,42.49
2022-08-09T15:39:54.746Z,42.44
2022-08-09T15:42:21.912Z,42.97
2022-08-09T15:44:48.239Z,42.84
2022-08-09T15:47:22.759Z,43.34
2022-08-09T15:50:03.437Z,43.15
2022-08-09T15:52:30.885Z,42.83
2022-08-09T15:54:57.750Z,42.78
2022-08-09T15:57:35.933Z,42.88
2022-08-09T16:00:13.857Z,42.71
2022-08-09T16:02:41.211Z,43.29
2022-08-09T16:05:07.723Z,43.83
2022-08-09T16:07:38.831Z,43.70
2022-08-09T16:10:06.125Z,43.73
2022-08-09T16:12:37.640Z,43.19
2022-08-09T16:16:10.664Z,42.58
2022-08-09T16:18:02.921Z,43.20
2022-08-09T16:20:30.389Z,42.48
2022-08-09T16:22:56.755Z,41.98
2022-08-09T16:25:39.348Z,42.40
2022-08-09T16:28:07.019Z,42.83
2022-08-09T16:30:33.289Z,42.70
2022-08-09T16:32:59.540Z,43.00
2022-08-09T16:35:56.010Z,43.23
2022-08-09T16:38:14.014Z,42.31
2022-08-09T16:40:44.478Z,42.53
2022-08-09T16:43:12.010Z,43.42
2022-08-09T16:45:44.103Z,43.05
2022-08-09T16:48:39.806Z,42.57
2022-08-09T16:50:59.314Z,42.63
2022-08-09T16:53:32.332Z,43.15
2022-08-09T16:56:06.039Z,41.42
2022-08-09T16:58:35.630Z,41.37
2022-08-09T17:01:02.340Z,41.23
2022-08-09T17:03:28.642Z,41.86
2022-08-09T17:06:07.278Z,41.62
2022-08-09T17:08:43.455Z,42.36
2022-08-09T17:11:15.276Z,41.82
2022-08-09T17:13:41.605Z,42.01
2022-08-09T17:16:11.646Z,42.90
2022-08-09T17:18:38.592Z,42.97
2022-08-09T17:21:05.177Z,42.25
2022-08-09T17:24:21.040Z,43.38
2022-08-09T17:26:31.328Z,45.39
2022-08-09T17:28:57.970Z,44.08
2022-08-09T17:31:25.407Z,43.52
2022-08-09T17:33:56.324Z,44.56
2022-08-09T17:36:25.969Z,44.83
2022-08-09T17:38:52.734Z,45.21
2022-08-09T17:41:38.828Z,44.54
2022-08-09T17:44:38.037Z,45.76
2022-08-09T17:46:55.651Z,46.68
2022-08-09T17:49:23.884Z,45.66
2022-08-09T17:51:50.145Z,46.14
2022-08-09T17:54:16.385Z,46.68
2022-08-09T17:56:43.465Z,46.03
2022-08-09T17:59:11.718Z,47.09
2022-08-09T18:02:07.693Z,47.47
2022-08-09T18:04:28.344Z,47.95
2022-08-09T18:06:56.021Z,49.16
2022-08-09T18:09:22.314Z,48.89
2022-08-09T18:12:10.124Z,49.40
2022-08-09T18:14:34.783Z,49.67
2022-08-09T18:17:02.282Z,51.12
2022-08-09T18:21:00.059Z,51.35
2022-08-09T18:22:17.188Z,51.11
2022-08-09T18:24:43.654Z,51.35
2022-08-09T18:27:13.671Z,52.45
2022-08-09T18:30:41.573Z,52.70
2022-08-09T18:32:31.598Z,54.03
2022-08-09T18:34:58.150Z,54.39
2022-08-09T18:37:48.940Z,54.77
2022-08-09T18:40:11.855Z,55.37
2022-08-09T18:42:38.777Z,56.60
2022-08-09T18:45:10.102Z,57.42
2022-08-09T18:47:48.026Z,57.79
2022-08-09T18:50:14.846Z,58.67
2022-08-09T18:52:41.926Z,59.08
2022-08-09T18:55:13.552Z,59.97
2022-08-09T18:57:43.466Z,60.67
2022-08-09T19:00:11.036Z,61.04
2022-08-09T19:02:37.521Z,62.98
2022-08-09T19:05:19.540Z,62.71
2022-08-09T19:07:59.233Z,63.33
2022-08-09T19:10:37.598Z,63.12
2022-08-09T19:13:19.841Z,64.26
2022-08-09T19:15:49.243Z,64.49
2022-08-09T19:18:17.242Z,65.62
2022-08-09T19:20:58.902Z,64.19
2022-08-09T19:24:32.637Z,64.13
2022-08-09T19:26:13.253Z,65.84
2022-08-09T19:28:42.551Z,65.95
2022-08-09T19:31:14.938Z,66.58
2022-08-09T19:33:42.933Z,67.05
2022-08-09T19:36:11.791Z,68.50
2022-08-09T19:38:39.890Z,68.96
2022-08-09T19:41:06.219Z,69.47
2022-08-09T19:44:00.772Z,69.68
2022-08-09T19:46:35.106Z,70.34
2022-08-09T19:50:07.318Z,71.68
2022-08-09T19:51:55.813Z,73.57
2022-08-09T19:54:22.561Z,73.69
2022-08-09T19:56:51.277Z,74.39
2022-08-09T19:59:39.746Z,75.39
2022-08-09T20:02:29.328Z,75.39
2022-08-09T20:04:54.873Z,76.51
2022-08-09T20:07:22.595Z,76.41
2022-08-09T20:09:48.996Z,77.47
2022-08-09T20:12:27.429Z,78.18
2022-08-09T20:15:01.541Z,79.10
2022-08-09T20:17:41.657Z,80.02
2022-08-09T20:20:15.104Z,82.58
2022-08-09T20:22:44.557Z,81.51
2022-08-09T20:25:12.579Z,83.19
2022-08-09T20:27:39.073Z,83.36
2022-08-09T20:30:06.617Z,84.26
2022-08-09T20:32:33.610Z,85.61
2022-08-09T20:35:01.781Z,85.01
2022-08-09T20:38:19.578Z,86.38
2022-08-09T20:40:19.037Z,88.44
2022-08-09T20:43:00.442Z,87.90
2022-08-09T20:45:57.827Z,89.21
2022-08-09T20:48:25.432Z,90.17
2022-08-09T20:50:57.897Z,90.30
2022-08-09T20:53:37.509Z,90.90
2022-08-09T20:56:04.750Z,92.37
2022-08-09T20:58:32.559Z,93.62
2022-08-09T21:01:13.632Z,94.10
2022-08-09T21:05:48.528Z,94.09
2022-08-09T21:06:31.803Z,95.22
2022-08-09T21:08:58.053Z,95.31
2022-08-09T21:14:11.187Z,97.48
2022-08-09T21:16:38.017Z,98.46
2022-08-09T21:20:18.639Z,100.00
2022-08-09T21:21:56.532Z,100.00
2022-08-09T21:24:28.417Z,100.00
2022-08-09T21:26:55.338Z,100.00
2022-08-09T21:29:22.635Z,100.00
2022-08-09T21:31:49.843Z,100.00
2022-08-09T21:34:28.759Z,100.00
2022-08-09T21:36:56.521Z,100.00
2022-08-09T21:39:41.432Z,100.00
2022-08-09T21:42:10.194Z,100.00
2022-08-09T21:44:37.203Z,100.00
2022-08-09T21:47:04.214Z,100.00
2022-08-09T21:49:40.054Z,100.00
2022-08-09T21:52:14.743Z,100.00
2022-08-09T21:54:46.144Z,100.00
2022-08-09T21:57:37.847Z,100.00
2022-08-09T21:59:58.898Z,100.00
2022-08-09T22:02:35.970Z,100.00
2022-08-09T22:05:16.380Z,100.00
2022-08-09T22:07:52.146Z,100.00
2022-08-09T22:10:23.365Z,100.00
2022-08-09T22:12:50.342Z,100.00
2022-08-09T22:15:16.957Z,100.00
2022-08-09T22:17:46.524Z,100.00
2022-08-09T22:20:21.509Z,100.00
2022-08-09T22:22:48.615Z,100.00
2022-08-09T22:26:08.562Z,100.00
2022-08-09T22:28:01.197Z,100.00
2022-08-09T22:30:33.614Z,100.00
2022-08-09T22:32:59.922Z,100.00
2022-08-09T22:36:01.272Z,100.00
2022-08-09T22:38:14.720Z,100.00
2022-08-09T22:40:49.244Z,100.00
2022-08-09T22:44:02.606Z,100.00
2022-08-09T22:48:18.481Z,100.00
2022-08-09T22:49:01.760Z,100.00
2022-08-09T22:51:38.323Z,100.00
2022-08-09T22:54:04.803Z,100.00
2022-08-09T22:56:34.703Z,100.00
2022-08-09T22:59:00.980Z,100.00
2022-08-09T23:01:32.479Z,100.00
2022-08-09T23:04:03.331Z,100.00
2022-08-09T23:06:35.118Z,100.00
2022-08-09T23:09:02.163Z,100.00
2022-08-09T23:11:28.423Z,100.00
2022-08-09T23:13:54.674Z,100.00
2022-08-09T23:16:20.986Z,100.00
2022-08-09T23:18:47.241Z,100.00
2022-08-09T23:21:13.546Z,100.00
2022-08-09T23:23:40.127Z,100.00
2022-08-09T23:26:06.357Z,100.00
2022-08-09T23:28:32.585Z,100.00
2022-08-09T23:30:58.874Z,100.00
2022-08-09T23:33:25.105Z,100.00
2022-08-09T23:36:04.456Z,100.00
2022-08-09T23:38:33.470Z,100.00
2022-08-09T23:40:59.769Z,100.00
2022-08-09T23:43:26.027Z,100.00
2022-08-09T23:45:52.274Z,100.00
2022-08-09T23:48:18.501Z,100.00
2022-08-09T23:50:44.814Z,100.00
2022-08-09T23:53:11.056Z,100.00
2022-08-09T23:55:38.684Z,100.00
2022-08-09T23:58:10.368Z,100.00
